sensor_id;sensor_type;location;lat;lon;timestamp;P1;durP1;ratioP1;P2;durP2;ratioP2
11835;SDS011;5977;51.972;7.640;2023-05-16T00:01:38;151.23;;;49.37;;
11835;SDS011;5977;51.972;7.640;2023-05-16T00:04:06;151.33;;;49.47;;
11835;SDS011;5977;51.972;7.640;2023-05-16T00:06:34;152.47;;;49.97;;
11835;SDS011;5977;51.972;7.640;2023-05-16T00:09:02;151.57;;;49.73;;
11835;SDS011;5977;51.972;7.640;2023-05-16T00:11:30;151.57;;;49.57;;
11835;SDS011;5977;51.972;7.640;2023-05-16T00:14:00;152.60;;;50.07;;
11835;SDS011;5977;51.972;7.640;2023-05-16T00:16:27;151.97;;;49.80;;
11835;SDS011;5977;51.972;7.640;2023-05-16T00:18:56;152.27;;;50.00;;
11835;SDS011;5977;51.972;7.640;2023-05-16T00:21:25;152.07;;;49.77;;
11835;SDS011;5977;51.972;7.640;2023-05-16T00:23:52;152.33;;;49.83;;
11835;SDS011;5977;51.972;7.640;2023-05-16T00:26:20;152.03;;;49.67;;
11835;SDS011;5977;51.972;7.640;2023-05-16T00:28:48;151.53;;;49.60;;
11835;SDS011;5977;51.972;7.640;2023-05-16T00:31:17;152.00;;;49.80;;
11835;SDS011;5977;51.972;7.640;2023-05-16T00:33:46;151.97;;;49.67;;
11835;SDS011;5977;51.972;7.640;2023-05-16T00:36:14;151.30;;;49.67;;
11835;SDS011;5977;51.972;7.640;2023-05-16T00:38:45;151.13;;;49.30;;
11835;SDS011;5977;51.972;7.640;2023-05-16T00:41:13;152.40;;;49.97;;
11835;SDS011;5977;51.972;7.640;2023-05-16T00:43:43;152.03;;;49.80;;
11835;SDS011;5977;51.972;7.640;2023-05-16T00:46:10;151.53;;;49.73;;
11835;SDS011;5977;51.972;7.640;2023-05-16T00:48:40;151.83;;;49.67;;
11835;SDS011;5977;51.972;7.640;2023-05-16T00:51:08;152.20;;;49.87;;
11835;SDS011;5977;51.972;7.640;2023-05-16T00:53:36;151.90;;;49.70;;
11835;SDS011;5977;51.972;7.640;2023-05-16T00:56:04;151.70;;;49.60;;
11835;SDS011;5977;51.972;7.640;2023-05-16T00:58:32;151.77;;;49.73;;
11835;SDS011;5977;51.972;7.640;2023-05-16T01:01:00;151.37;;;49.60;;
11835;SDS011;5977;51.972;7.640;2023-05-16T01:03:29;152.03;;;49.63;;
11835;SDS011;5977;51.972;7.640;2023-05-16T01:05:59;151.50;;;49.60;;
11835;SDS011;5977;51.972;7.640;2023-05-16T01:08:27;151.50;;;49.30;;
11835;SDS011;5977;51.972;7.640;2023-05-16T01:10:58;151.70;;;49.53;;
11835;SDS011;5977;51.972;7.640;2023-05-16T01:13:32;151.53;;;49.47;;
11835;SDS011;5977;51.972;7.640;2023-05-16T01:16:09;151.57;;;49.43;;
11835;SDS011;5977;51.972;7.640;2023-05-16T01:18:45;151.03;;;49.10;;
11835;SDS011;5977;51.972;7.640;2023-05-16T01:21:26;152.17;;;49.70;;
11835;SDS011;5977;51.972;7.640;2023-05-16T01:24:11;151.20;;;49.37;;
11835;SDS011;5977;51.972;7.640;2023-05-16T01:26:42;150.80;;;49.27;;
11835;SDS011;5977;51.972;7.640;2023-05-16T01:29:11;151.50;;;49.47;;
11835;SDS011;5977;51.972;7.640;2023-05-16T01:31:40;151.43;;;49.33;;
11835;SDS011;5977;51.972;7.640;2023-05-16T01:34:10;151.60;;;49.50;;
11835;SDS011;5977;51.972;7.640;2023-05-16T01:36:40;150.90;;;49.17;;
11835;SDS011;5977;51.972;7.640;2023-05-16T01:39:16;151.07;;;49.37;;
11835;SDS011;5977;51.972;7.640;2023-05-16T01:41:52;151.13;;;49.27;;
11835;SDS011;5977;51.972;7.640;2023-05-16T01:44:28;151.97;;;49.63;;
11835;SDS011;5977;51.972;7.640;2023-05-16T01:47:00;151.63;;;49.50;;
11835;SDS011;5977;51.972;7.640;2023-05-16T01:49:33;150.90;;;49.27;;
11835;SDS011;5977;51.972;7.640;2023-05-16T01:52:04;151.27;;;49.23;;
11835;SDS011;5977;51.972;7.640;2023-05-16T01:54:36;151.43;;;49.43;;
11835;SDS011;5977;51.972;7.640;2023-05-16T01:57:07;150.83;;;48.93;;
11835;SDS011;5977;51.972;7.640;2023-05-16T01:59:36;151.47;;;49.43;;
11835;SDS011;5977;51.972;7.640;2023-05-16T02:02:05;151.33;;;49.33;;
11835;SDS011;5977;51.972;7.640;2023-05-16T02:04:33;150.93;;;49.23;;
11835;SDS011;5977;51.972;7.640;2023-05-16T02:07:01;151.17;;;49.17;;
11835;SDS011;5977;51.972;7.640;2023-05-16T02:09:29;151.57;;;49.50;;
11835;SDS011;5977;51.972;7.640;2023-05-16T02:11:58;150.83;;;49.03;;
11835;SDS011;5977;51.972;7.640;2023-05-16T02:14:29;151.23;;;49.30;;
11835;SDS011;5977;51.972;7.640;2023-05-16T02:16:57;151.07;;;49.17;;
11835;SDS011;5977;51.972;7.640;2023-05-16T02:19:25;150.30;;;48.93;;
11835;SDS011;5977;51.972;7.640;2023-05-16T02:21:53;150.97;;;49.17;;
11835;SDS011;5977;51.972;7.640;2023-05-16T02:24:21;151.43;;;49.27;;
11835;SDS011;5977;51.972;7.640;2023-05-16T02:26:49;151.50;;;49.33;;
11835;SDS011;5977;51.972;7.640;2023-05-16T02:29:17;151.23;;;49.30;;
11835;SDS011;5977;51.972;7.640;2023-05-16T02:31:47;150.60;;;49.07;;
11835;SDS011;5977;51.972;7.640;2023-05-16T02:34:14;150.73;;;49.10;;
11835;SDS011;5977;51.972;7.640;2023-05-16T02:36:42;150.53;;;48.93;;
11835;SDS011;5977;51.972;7.640;2023-05-16T02:39:10;150.90;;;49.03;;
11835;SDS011;5977;51.972;7.640;2023-05-16T02:41:38;150.83;;;49.30;;
11835;SDS011;5977;51.972;7.640;2023-05-16T02:44:07;151.00;;;49.20;;
11835;SDS011;5977;51.972;7.640;2023-05-16T02:46:35;150.57;;;49.20;;
11835;SDS011;5977;51.972;7.640;2023-05-16T02:49:04;151.00;;;49.20;;
11835;SDS011;5977;51.972;7.640;2023-05-16T02:51:32;150.70;;;49.27;;
11835;SDS011;5977;51.972;7.640;2023-05-16T02:54:00;150.80;;;49.07;;
11835;SDS011;5977;51.972;7.640;2023-05-16T02:56:28;151.03;;;49.30;;
11835;SDS011;5977;51.972;7.640;2023-05-16T02:58:56;151.30;;;49.43;;
11835;SDS011;5977;51.972;7.640;2023-05-16T03:01:24;150.93;;;49.17;;
11835;SDS011;5977;51.972;7.640;2023-05-16T03:03:52;150.50;;;49.17;;
11835;SDS011;5977;51.972;7.640;2023-05-16T03:06:22;150.73;;;49.10;;
11835;SDS011;5977;51.972;7.640;2023-05-16T03:08:50;150.43;;;48.73;;
11835;SDS011;5977;51.972;7.640;2023-05-16T03:11:18;150.90;;;49.27;;
11835;SDS011;5977;51.972;7.640;2023-05-16T03:13:47;150.37;;;48.87;;
11835;SDS011;5977;51.972;7.640;2023-05-16T03:16:15;150.97;;;49.17;;
11835;SDS011;5977;51.972;7.640;2023-05-16T03:18:44;150.53;;;49.13;;
11835;SDS011;5977;51.972;7.640;2023-05-16T03:21:12;150.23;;;48.80;;
11835;SDS011;5977;51.972;7.640;2023-05-16T03:23:44;150.40;;;48.83;;
11835;SDS011;5977;51.972;7.640;2023-05-16T03:26:13;150.63;;;49.17;;
11835;SDS011;5977;51.972;7.640;2023-05-16T03:28:41;150.77;;;49.10;;
11835;SDS011;5977;51.972;7.640;2023-05-16T03:31:09;151.10;;;49.40;;
11835;SDS011;5977;51.972;7.640;2023-05-16T03:33:38;150.90;;;49.17;;
11835;SDS011;5977;51.972;7.640;2023-05-16T03:36:08;150.67;;;49.10;;
11835;SDS011;5977;51.972;7.640;2023-05-16T03:38:36;150.67;;;49.03;;
11835;SDS011;5977;51.972;7.640;2023-05-16T03:41:06;150.57;;;48.97;;
11835;SDS011;5977;51.972;7.640;2023-05-16T03:43:34;150.77;;;49.10;;
11835;SDS011;5977;51.972;7.640;2023-05-16T03:46:02;151.03;;;49.20;;
11835;SDS011;5977;51.972;7.640;2023-05-16T03:48:30;150.23;;;48.83;;
11835;SDS011;5977;51.972;7.640;2023-05-16T03:50:58;150.57;;;49.03;;
11835;SDS011;5977;51.972;7.640;2023-05-16T03:53:26;150.87;;;49.10;;
11835;SDS011;5977;51.972;7.640;2023-05-16T03:55:54;150.03;;;48.87;;
11835;SDS011;5977;51.972;7.640;2023-05-16T03:58:23;150.27;;;49.00;;
11835;SDS011;5977;51.972;7.640;2023-05-16T04:00:51;150.67;;;49.10;;
11835;SDS011;5977;51.972;7.640;2023-05-16T04:03:19;150.33;;;48.93;;
11835;SDS011;5977;51.972;7.640;2023-05-16T04:05:53;149.90;;;48.80;;
11835;SDS011;5977;51.972;7.640;2023-05-16T04:08:21;150.53;;;48.87;;
11835;SDS011;5977;51.972;7.640;2023-05-16T04:10:49;149.87;;;48.50;;
11835;SDS011;5977;51.972;7.640;2023-05-16T04:13:17;150.13;;;48.70;;
11835;SDS011;5977;51.972;7.640;2023-05-16T04:15:47;150.23;;;48.67;;
11835;SDS011;5977;51.972;7.640;2023-05-16T04:18:15;150.50;;;48.73;;
11835;SDS011;5977;51.972;7.640;2023-05-16T04:20:44;150.10;;;48.57;;
11835;SDS011;5977;51.972;7.640;2023-05-16T04:23:12;149.83;;;48.53;;
11835;SDS011;5977;51.972;7.640;2023-05-16T04:25:40;150.17;;;48.73;;
11835;SDS011;5977;51.972;7.640;2023-05-16T04:28:08;150.10;;;48.67;;
11835;SDS011;5977;51.972;7.640;2023-05-16T04:30:36;149.93;;;48.50;;
11835;SDS011;5977;51.972;7.640;2023-05-16T04:33:05;149.87;;;48.57;;
11835;SDS011;5977;51.972;7.640;2023-05-16T04:35:33;150.27;;;48.77;;
11835;SDS011;5977;51.972;7.640;2023-05-16T04:38:02;150.20;;;48.67;;
11835;SDS011;5977;51.972;7.640;2023-05-16T04:40:30;150.20;;;48.67;;
11835;SDS011;5977;51.972;7.640;2023-05-16T04:42:59;149.83;;;48.63;;
11835;SDS011;5977;51.972;7.640;2023-05-16T04:45:26;149.80;;;48.50;;
11835;SDS011;5977;51.972;7.640;2023-05-16T04:47:55;149.83;;;48.40;;
11835;SDS011;5977;51.972;7.640;2023-05-16T04:50:24;149.77;;;48.57;;
11835;SDS011;5977;51.972;7.640;2023-05-16T04:52:52;149.97;;;48.60;;
11835;SDS011;5977;51.972;7.640;2023-05-16T04:55:21;149.70;;;48.63;;
11835;SDS011;5977;51.972;7.640;2023-05-16T04:57:49;150.10;;;48.70;;
11835;SDS011;5977;51.972;7.640;2023-05-16T05:00:17;149.67;;;48.57;;
11835;SDS011;5977;51.972;7.640;2023-05-16T05:02:45;149.47;;;48.37;;
11835;SDS011;5977;51.972;7.640;2023-05-16T05:05:13;149.53;;;48.47;;
11835;SDS011;5977;51.972;7.640;2023-05-16T05:07:46;149.73;;;48.47;;
11835;SDS011;5977;51.972;7.640;2023-05-16T05:10:14;149.73;;;48.47;;
11835;SDS011;5977;51.972;7.640;2023-05-16T05:12:42;149.50;;;48.47;;
11835;SDS011;5977;51.972;7.640;2023-05-16T05:15:10;149.40;;;48.37;;
11835;SDS011;5977;51.972;7.640;2023-05-16T05:17:38;149.97;;;48.67;;
11835;SDS011;5977;51.972;7.640;2023-05-16T05:20:07;149.87;;;48.70;;
11835;SDS011;5977;51.972;7.640;2023-05-16T05:22:35;149.63;;;48.40;;
11835;SDS011;5977;51.972;7.640;2023-05-16T05:25:05;149.67;;;48.63;;
11835;SDS011;5977;51.972;7.640;2023-05-16T05:27:33;149.70;;;48.67;;
11835;SDS011;5977;51.972;7.640;2023-05-16T05:30:01;150.03;;;48.83;;
11835;SDS011;5977;51.972;7.640;2023-05-16T05:32:29;150.20;;;48.93;;
11835;SDS011;5977;51.972;7.640;2023-05-16T05:34:57;150.03;;;48.73;;
11835;SDS011;5977;51.972;7.640;2023-05-16T05:37:26;150.23;;;48.97;;
11835;SDS011;5977;51.972;7.640;2023-05-16T05:39:54;149.67;;;48.60;;
11835;SDS011;5977;51.972;7.640;2023-05-16T05:42:23;149.83;;;48.70;;
11835;SDS011;5977;51.972;7.640;2023-05-16T05:44:51;149.60;;;48.60;;
11835;SDS011;5977;51.972;7.640;2023-05-16T05:47:19;149.93;;;48.83;;
11835;SDS011;5977;51.972;7.640;2023-05-16T05:49:47;150.17;;;49.07;;
11835;SDS011;5977;51.972;7.640;2023-05-16T05:52:16;150.57;;;49.17;;
11835;SDS011;5977;51.972;7.640;2023-05-16T05:54:43;149.80;;;48.77;;
11835;SDS011;5977;51.972;7.640;2023-05-16T05:57:12;149.40;;;48.43;;
11835;SDS011;5977;51.972;7.640;2023-05-16T05:59:41;150.10;;;48.70;;
11835;SDS011;5977;51.972;7.640;2023-05-16T06:02:09;150.37;;;49.00;;
11835;SDS011;5977;51.972;7.640;2023-05-16T06:04:37;150.63;;;49.20;;
11835;SDS011;5977;51.972;7.640;2023-05-16T06:07:07;150.60;;;49.23;;
11835;SDS011;5977;51.972;7.640;2023-05-16T06:09:35;150.60;;;49.17;;
11835;SDS011;5977;51.972;7.640;2023-05-16T06:12:04;150.17;;;48.87;;
11835;SDS011;5977;51.972;7.640;2023-05-16T06:14:32;149.43;;;48.37;;
11835;SDS011;5977;51.972;7.640;2023-05-16T06:17:01;149.20;;;48.10;;
11835;SDS011;5977;51.972;7.640;2023-05-16T06:19:29;149.97;;;48.57;;
11835;SDS011;5977;51.972;7.640;2023-05-16T06:21:57;149.07;;;48.33;;
11835;SDS011;5977;51.972;7.640;2023-05-16T06:24:25;149.73;;;48.53;;
11835;SDS011;5977;51.972;7.640;2023-05-16T06:26:54;148.90;;;48.20;;
11835;SDS011;5977;51.972;7.640;2023-05-16T06:29:23;149.70;;;48.50;;
11835;SDS011;5977;51.972;7.640;2023-05-16T06:31:51;149.20;;;48.27;;
11835;SDS011;5977;51.972;7.640;2023-05-16T06:34:20;149.13;;;48.23;;
11835;SDS011;5977;51.972;7.640;2023-05-16T06:36:53;149.07;;;48.17;;
11835;SDS011;5977;51.972;7.640;2023-05-16T06:39:21;148.97;;;48.03;;
11835;SDS011;5977;51.972;7.640;2023-05-16T06:41:49;149.70;;;48.40;;
11835;SDS011;5977;51.972;7.640;2023-05-16T06:44:21;150.00;;;48.60;;
11835;SDS011;5977;51.972;7.640;2023-05-16T06:46:49;149.20;;;48.20;;
11835;SDS011;5977;51.972;7.640;2023-05-16T06:49:17;149.67;;;48.33;;
11835;SDS011;5977;51.972;7.640;2023-05-16T06:51:47;149.40;;;48.43;;
11835;SDS011;5977;51.972;7.640;2023-05-16T06:54:15;148.77;;;47.97;;
11835;SDS011;5977;51.972;7.640;2023-05-16T06:56:43;148.80;;;48.17;;
11835;SDS011;5977;51.972;7.640;2023-05-16T06:59:11;149.27;;;48.30;;
11835;SDS011;5977;51.972;7.640;2023-05-16T07:01:39;148.97;;;48.20;;
11835;SDS011;5977;51.972;7.640;2023-05-16T07:04:08;149.20;;;48.47;;
11835;SDS011;5977;51.972;7.640;2023-05-16T07:06:36;149.47;;;48.40;;
11835;SDS011;5977;51.972;7.640;2023-05-16T07:09:05;149.03;;;48.23;;
11835;SDS011;5977;51.972;7.640;2023-05-16T07:11:33;148.70;;;48.03;;
11835;SDS011;5977;51.972;7.640;2023-05-16T07:14:02;149.20;;;48.33;;
11835;SDS011;5977;51.972;7.640;2023-05-16T07:16:30;149.30;;;48.43;;
11835;SDS011;5977;51.972;7.640;2023-05-16T07:18:58;149.13;;;48.27;;
11835;SDS011;5977;51.972;7.640;2023-05-16T07:21:26;149.43;;;48.53;;
11835;SDS011;5977;51.972;7.640;2023-05-16T07:23:54;149.93;;;48.73;;
11835;SDS011;5977;51.972;7.640;2023-05-16T07:26:25;149.30;;;48.53;;
11835;SDS011;5977;51.972;7.640;2023-05-16T07:28:52;149.23;;;48.23;;
11835;SDS011;5977;51.972;7.640;2023-05-16T07:31:20;148.93;;;48.07;;
11835;SDS011;5977;51.972;7.640;2023-05-16T07:33:49;149.03;;;48.30;;
11835;SDS011;5977;51.972;7.640;2023-05-16T07:36:20;149.20;;;48.40;;
11835;SDS011;5977;51.972;7.640;2023-05-16T07:38:48;149.17;;;48.40;;
11835;SDS011;5977;51.972;7.640;2023-05-16T07:41:16;149.23;;;48.57;;
11835;SDS011;5977;51.972;7.640;2023-05-16T07:43:45;149.60;;;48.57;;
11835;SDS011;5977;51.972;7.640;2023-05-16T07:46:13;149.33;;;48.43;;
11835;SDS011;5977;51.972;7.640;2023-05-16T07:48:41;149.53;;;48.73;;
11835;SDS011;5977;51.972;7.640;2023-05-16T07:51:09;149.40;;;48.73;;
11835;SDS011;5977;51.972;7.640;2023-05-16T07:53:36;149.77;;;48.80;;
11835;SDS011;5977;51.972;7.640;2023-05-16T07:56:05;149.60;;;48.70;;
11835;SDS011;5977;51.972;7.640;2023-05-16T07:58:34;149.87;;;49.00;;
11835;SDS011;5977;51.972;7.640;2023-05-16T08:01:04;150.40;;;49.57;;
11835;SDS011;5977;51.972;7.640;2023-05-16T08:03:32;150.87;;;50.03;;
11835;SDS011;5977;51.972;7.640;2023-05-16T08:06:01;150.97;;;50.43;;
11835;SDS011;5977;51.972;7.640;2023-05-16T08:08:30;151.73;;;50.60;;
11835;SDS011;5977;51.972;7.640;2023-05-16T08:10:58;152.00;;;51.03;;
11835;SDS011;5977;51.972;7.640;2023-05-16T08:13:26;151.67;;;50.97;;
11835;SDS011;5977;51.972;7.640;2023-05-16T08:15:54;152.67;;;51.47;;
11835;SDS011;5977;51.972;7.640;2023-05-16T08:18:24;153.07;;;52.03;;
11835;SDS011;5977;51.972;7.640;2023-05-16T08:20:52;152.73;;;51.87;;
11835;SDS011;5977;51.972;7.640;2023-05-16T08:23:19;153.57;;;51.90;;
11835;SDS011;5977;51.972;7.640;2023-05-16T08:25:48;153.50;;;52.03;;
11835;SDS011;5977;51.972;7.640;2023-05-16T08:28:16;153.87;;;52.10;;
11835;SDS011;5977;51.972;7.640;2023-05-16T08:30:43;154.03;;;51.80;;
11835;SDS011;5977;51.972;7.640;2023-05-16T08:33:13;153.23;;;51.47;;
11835;SDS011;5977;51.972;7.640;2023-05-16T08:35:43;152.67;;;51.03;;
11835;SDS011;5977;51.972;7.640;2023-05-16T08:38:11;152.67;;;51.20;;
11835;SDS011;5977;51.972;7.640;2023-05-16T08:40:39;151.97;;;50.70;;
11835;SDS011;5977;51.972;7.640;2023-05-16T08:43:09;153.43;;;51.00;;
11835;SDS011;5977;51.972;7.640;2023-05-16T08:45:37;152.73;;;51.17;;
11835;SDS011;5977;51.972;7.640;2023-05-16T08:48:07;152.37;;;51.00;;
11835;SDS011;5977;51.972;7.640;2023-05-16T08:50:37;153.27;;;51.27;;
11835;SDS011;5977;51.972;7.640;2023-05-16T08:53:11;153.27;;;51.70;;
11835;SDS011;5977;51.972;7.640;2023-05-16T08:55:43;152.73;;;51.63;;
11835;SDS011;5977;51.972;7.640;2023-05-16T08:58:13;152.63;;;51.63;;
11835;SDS011;5977;51.972;7.640;2023-05-16T09:00:42;152.77;;;51.60;;
11835;SDS011;5977;51.972;7.640;2023-05-16T09:03:10;153.87;;;51.90;;
11835;SDS011;5977;51.972;7.640;2023-05-16T09:05:39;153.97;;;51.90;;
11835;SDS011;5977;51.972;7.640;2023-05-16T09:08:07;153.00;;;51.20;;
11835;SDS011;5977;51.972;7.640;2023-05-16T09:10:36;152.43;;;50.67;;
11835;SDS011;5977;51.972;7.640;2023-05-16T09:13:04;152.87;;;50.87;;
11835;SDS011;5977;51.972;7.640;2023-05-16T09:15:32;151.87;;;50.83;;
11835;SDS011;5977;51.972;7.640;2023-05-16T09:18:00;152.90;;;51.23;;
11835;SDS011;5977;51.972;7.640;2023-05-16T09:20:30;152.40;;;50.83;;
11835;SDS011;5977;51.972;7.640;2023-05-16T09:22:58;152.20;;;50.57;;
11835;SDS011;5977;51.972;7.640;2023-05-16T09:25:27;153.30;;;51.43;;
11835;SDS011;5977;51.972;7.640;2023-05-16T09:27:59;153.87;;;51.77;;
11835;SDS011;5977;51.972;7.640;2023-05-16T09:30:30;152.83;;;51.33;;
11835;SDS011;5977;51.972;7.640;2023-05-16T09:33:00;153.13;;;51.50;;
11835;SDS011;5977;51.972;7.640;2023-05-16T09:35:28;152.63;;;51.20;;
11835;SDS011;5977;51.972;7.640;2023-05-16T09:38:00;153.53;;;51.77;;
11835;SDS011;5977;51.972;7.640;2023-05-16T09:40:28;152.97;;;51.47;;
11835;SDS011;5977;51.972;7.640;2023-05-16T09:43:04;153.70;;;51.97;;
11835;SDS011;5977;51.972;7.640;2023-05-16T09:45:34;153.87;;;52.00;;
11835;SDS011;5977;51.972;7.640;2023-05-16T09:48:03;153.70;;;51.73;;
11835;SDS011;5977;51.972;7.640;2023-05-16T09:50:32;152.73;;;51.27;;
11835;SDS011;5977;51.972;7.640;2023-05-16T09:53:01;152.90;;;51.50;;
11835;SDS011;5977;51.972;7.640;2023-05-16T09:55:29;151.80;;;50.67;;
11835;SDS011;5977;51.972;7.640;2023-05-16T09:57:58;152.53;;;50.77;;
11835;SDS011;5977;51.972;7.640;2023-05-16T10:00:29;153.13;;;51.33;;
11835;SDS011;5977;51.972;7.640;2023-05-16T10:03:01;153.37;;;51.63;;
11835;SDS011;5977;51.972;7.640;2023-05-16T10:05:31;153.73;;;51.87;;
11835;SDS011;5977;51.972;7.640;2023-05-16T10:08:01;154.17;;;51.97;;
11835;SDS011;5977;51.972;7.640;2023-05-16T10:10:30;152.73;;;51.07;;
11835;SDS011;5977;51.972;7.640;2023-05-16T10:13:01;153.43;;;51.43;;
11835;SDS011;5977;51.972;7.640;2023-05-16T10:15:33;153.27;;;51.30;;
11835;SDS011;5977;51.972;7.640;2023-05-16T10:18:03;153.00;;;51.13;;
11835;SDS011;5977;51.972;7.640;2023-05-16T10:20:37;152.97;;;50.97;;
11835;SDS011;5977;51.972;7.640;2023-05-16T10:23:07;153.13;;;50.83;;
11835;SDS011;5977;51.972;7.640;2023-05-16T10:25:39;153.30;;;51.13;;
11835;SDS011;5977;51.972;7.640;2023-05-16T10:28:09;152.93;;;50.90;;
11835;SDS011;5977;51.972;7.640;2023-05-16T10:30:40;152.70;;;50.73;;
11835;SDS011;5977;51.972;7.640;2023-05-16T10:33:10;153.07;;;51.10;;
11835;SDS011;5977;51.972;7.640;2023-05-16T10:35:40;153.37;;;50.90;;
11835;SDS011;5977;51.972;7.640;2023-05-16T10:38:12;153.17;;;50.97;;
11835;SDS011;5977;51.972;7.640;2023-05-16T10:40:43;152.67;;;50.77;;
11835;SDS011;5977;51.972;7.640;2023-05-16T10:43:21;152.33;;;50.67;;
11835;SDS011;5977;51.972;7.640;2023-05-16T10:45:55;152.10;;;50.77;;
11835;SDS011;5977;51.972;7.640;2023-05-16T10:48:27;152.57;;;50.90;;
11835;SDS011;5977;51.972;7.640;2023-05-16T10:50:56;152.93;;;51.20;;
11835;SDS011;5977;51.972;7.640;2023-05-16T10:53:28;152.43;;;50.67;;
11835;SDS011;5977;51.972;7.640;2023-05-16T10:56:05;153.57;;;51.57;;
11835;SDS011;5977;51.972;7.640;2023-05-16T10:58:40;152.47;;;50.73;;
11835;SDS011;5977;51.972;7.640;2023-05-16T11:01:24;153.03;;;51.13;;
11835;SDS011;5977;51.972;7.640;2023-05-16T11:06:44;152.10;;;50.30;;
11835;SDS011;5977;51.972;7.640;2023-05-16T11:09:24;152.83;;;51.10;;
11835;SDS011;5977;51.972;7.640;2023-05-16T11:12:00;152.30;;;50.73;;
11835;SDS011;5977;51.972;7.640;2023-05-16T11:14:34;152.10;;;50.17;;
11835;SDS011;5977;51.972;7.640;2023-05-16T11:17:10;152.93;;;51.00;;
11835;SDS011;5977;51.972;7.640;2023-05-16T11:19:41;153.10;;;51.17;;
11835;SDS011;5977;51.972;7.640;2023-05-16T11:22:11;152.63;;;50.63;;
11835;SDS011;5977;51.972;7.640;2023-05-16T11:24:51;152.63;;;50.63;;
11835;SDS011;5977;51.972;7.640;2023-05-16T11:27:22;152.10;;;50.50;;
11835;SDS011;5977;51.972;7.640;2023-05-16T11:29:51;152.73;;;50.73;;
11835;SDS011;5977;51.972;7.640;2023-05-16T11:32:21;152.90;;;51.03;;
11835;SDS011;5977;51.972;7.640;2023-05-16T11:34:50;152.83;;;50.97;;
11835;SDS011;5977;51.972;7.640;2023-05-16T11:37:19;152.73;;;50.90;;
11835;SDS011;5977;51.972;7.640;2023-05-16T11:39:48;152.73;;;50.60;;
11835;SDS011;5977;51.972;7.640;2023-05-16T11:42:16;152.50;;;50.47;;
11835;SDS011;5977;51.972;7.640;2023-05-16T11:44:44;152.07;;;50.13;;
11835;SDS011;5977;51.972;7.640;2023-05-16T11:47:12;152.47;;;50.30;;
11835;SDS011;5977;51.972;7.640;2023-05-16T11:49:42;152.43;;;50.23;;
11835;SDS011;5977;51.972;7.640;2023-05-16T11:52:10;151.93;;;50.30;;
11835;SDS011;5977;51.972;7.640;2023-05-16T11:54:38;151.47;;;50.07;;
11835;SDS011;5977;51.972;7.640;2023-05-16T11:57:07;151.97;;;50.20;;
11835;SDS011;5977;51.972;7.640;2023-05-16T11:59:35;152.67;;;50.57;;
11835;SDS011;5977;51.972;7.640;2023-05-16T12:02:03;152.03;;;50.30;;
11835;SDS011;5977;51.972;7.640;2023-05-16T12:04:32;152.00;;;50.13;;
11835;SDS011;5977;51.972;7.640;2023-05-16T12:07:01;152.70;;;50.50;;
11835;SDS011;5977;51.972;7.640;2023-05-16T12:09:30;152.10;;;50.27;;
11835;SDS011;5977;51.972;7.640;2023-05-16T12:11:58;152.40;;;50.47;;
11835;SDS011;5977;51.972;7.640;2023-05-16T12:14:31;152.13;;;50.27;;
11835;SDS011;5977;51.972;7.640;2023-05-16T12:16:59;152.17;;;50.33;;
11835;SDS011;5977;51.972;7.640;2023-05-16T12:19:30;152.00;;;50.33;;
11835;SDS011;5977;51.972;7.640;2023-05-16T12:21:58;152.30;;;50.47;;
11835;SDS011;5977;51.972;7.640;2023-05-16T12:24:30;153.40;;;50.83;;
11835;SDS011;5977;51.972;7.640;2023-05-16T12:26:58;152.60;;;50.53;;
11835;SDS011;5977;51.972;7.640;2023-05-16T12:29:27;152.53;;;50.50;;
11835;SDS011;5977;51.972;7.640;2023-05-16T12:31:57;152.70;;;50.67;;
11835;SDS011;5977;51.972;7.640;2023-05-16T12:34:27;152.33;;;50.57;;
11835;SDS011;5977;51.972;7.640;2023-05-16T12:36:56;151.97;;;50.30;;
11835;SDS011;5977;51.972;7.640;2023-05-16T12:39:27;152.03;;;50.33;;
11835;SDS011;5977;51.972;7.640;2023-05-16T12:42:06;152.27;;;50.63;;
11835;SDS011;5977;51.972;7.640;2023-05-16T12:44:34;152.60;;;50.73;;
11835;SDS011;5977;51.972;7.640;2023-05-16T12:47:03;151.80;;;50.00;;
11835;SDS011;5977;51.972;7.640;2023-05-16T12:49:42;152.00;;;50.27;;
11835;SDS011;5977;51.972;7.640;2023-05-16T12:52:11;152.43;;;50.40;;
11835;SDS011;5977;51.972;7.640;2023-05-16T12:54:49;152.40;;;50.37;;
11835;SDS011;5977;51.972;7.640;2023-05-16T12:57:18;152.00;;;50.07;;
11835;SDS011;5977;51.972;7.640;2023-05-16T12:59:46;151.80;;;50.00;;
11835;SDS011;5977;51.972;7.640;2023-05-16T13:02:13;152.47;;;50.30;;
11835;SDS011;5977;51.972;7.640;2023-05-16T13:04:42;152.50;;;50.47;;
11835;SDS011;5977;51.972;7.640;2023-05-16T13:07:10;152.13;;;50.37;;
11835;SDS011;5977;51.972;7.640;2023-05-16T13:09:38;151.60;;;50.13;;
11835;SDS011;5977;51.972;7.640;2023-05-16T13:12:08;151.97;;;50.40;;
11835;SDS011;5977;51.972;7.640;2023-05-16T13:14:36;152.43;;;50.63;;
11835;SDS011;5977;51.972;7.640;2023-05-16T13:17:07;151.70;;;50.27;;
11835;SDS011;5977;51.972;7.640;2023-05-16T13:19:37;152.20;;;50.33;;
11835;SDS011;5977;51.972;7.640;2023-05-16T13:22:05;152.27;;;50.60;;
11835;SDS011;5977;51.972;7.640;2023-05-16T13:24:33;152.63;;;50.57;;
11835;SDS011;5977;51.972;7.640;2023-05-16T13:27:01;152.73;;;50.73;;
11835;SDS011;5977;51.972;7.640;2023-05-16T13:29:30;152.30;;;50.53;;
11835;SDS011;5977;51.972;7.640;2023-05-16T13:31:58;152.17;;;50.30;;
11835;SDS011;5977;51.972;7.640;2023-05-16T13:34:26;151.70;;;50.03;;
11835;SDS011;5977;51.972;7.640;2023-05-16T13:36:55;152.60;;;50.70;;
11835;SDS011;5977;51.972;7.640;2023-05-16T13:39:23;151.87;;;50.10;;
11835;SDS011;5977;51.972;7.640;2023-05-16T13:41:51;151.93;;;50.20;;
11835;SDS011;5977;51.972;7.640;2023-05-16T13:44:19;151.77;;;50.13;;
11835;SDS011;5977;51.972;7.640;2023-05-16T13:46:49;153.03;;;50.70;;
11835;SDS011;5977;51.972;7.640;2023-05-16T13:49:17;152.20;;;50.20;;
11835;SDS011;5977;51.972;7.640;2023-05-16T13:51:46;152.17;;;50.43;;
11835;SDS011;5977;51.972;7.640;2023-05-16T13:54:14;152.30;;;50.43;;
11835;SDS011;5977;51.972;7.640;2023-05-16T13:56:42;151.73;;;50.07;;
11835;SDS011;5977;51.972;7.640;2023-05-16T13:59:10;151.97;;;50.10;;
11835;SDS011;5977;51.972;7.640;2023-05-16T14:01:45;152.43;;;50.43;;
11835;SDS011;5977;51.972;7.640;2023-05-16T14:04:15;152.57;;;50.67;;
11835;SDS011;5977;51.972;7.640;2023-05-16T14:06:43;152.73;;;50.67;;
11835;SDS011;5977;51.972;7.640;2023-05-16T14:09:11;152.50;;;50.57;;
11835;SDS011;5977;51.972;7.640;2023-05-16T14:11:40;152.07;;;50.30;;
11835;SDS011;5977;51.972;7.640;2023-05-16T14:14:08;152.17;;;50.10;;
11835;SDS011;5977;51.972;7.640;2023-05-16T14:16:36;151.73;;;50.17;;
11835;SDS011;5977;51.972;7.640;2023-05-16T14:19:04;152.10;;;50.20;;
11835;SDS011;5977;51.972;7.640;2023-05-16T14:21:33;152.53;;;50.50;;
11835;SDS011;5977;51.972;7.640;2023-05-16T14:24:02;152.33;;;50.30;;
11835;SDS011;5977;51.972;7.640;2023-05-16T14:26:30;152.20;;;50.30;;
11835;SDS011;5977;51.972;7.640;2023-05-16T14:28:58;151.87;;;50.10;;
11835;SDS011;5977;51.972;7.640;2023-05-16T14:31:26;151.70;;;50.07;;
11835;SDS011;5977;51.972;7.640;2023-05-16T14:33:54;152.13;;;50.13;;
11835;SDS011;5977;51.972;7.640;2023-05-16T14:36:22;151.97;;;50.10;;